ASA7015 PANC-PABR
Flight info
| Callsign | ASA7015 |
|---|---|
| Flight time | 1h 36m |
| Altitude | 38000 |
| Route | KUTDE BRONX CHIPS LEDHO BRW |
| Aircraft | B738/M-SDE2E3FGHIRWXY/LB1 |
Departure
| Time | 2026-04-23 21:09 |
|---|---|
| Airport | Ted Stevens Anchorage International Airport (PANC) |
Arrival
| Time | 2026-04-23 22:46 |
|---|---|
| Airport | Wiley Post Will Rogers Memorial Airport (PABR) |
| Time | Latitude | Longitude | Altitude | Speed | Heading |
|---|---|---|---|---|---|
| 2026-04-23 20:39 | 61.17249 | -149.96463 | 135 ft | 0 kts | 0° |
| 2026-04-23 20:56 | 61.17226 | -149.96461 | 134 ft | 4 kts | 354° |
| 2026-04-23 20:57 | 61.17199 | -149.96454 | 134 ft | 4 kts | 348° |
| 2026-04-23 20:57 | 61.17173 | -149.96439 | 134 ft | 4 kts | 340° |
| 2026-04-23 20:57 | 61.17148 | -149.96416 | 132 ft | 4 kts | 326° |
| 2026-04-23 20:57 | 61.17131 | -149.96383 | 132 ft | 4 kts | 292° |
| 2026-04-23 20:58 | 61.17128 | -149.96362 | 132 ft | 0 kts | 268° |
| 2026-04-23 21:00 | 61.17127 | -149.96368 | 132 ft | 2 kts | 267° |
| 2026-04-23 21:00 | 61.17128 | -149.96493 | 132 ft | 16 kts | 269° |
| 2026-04-23 21:00 | 61.17126 | -149.96742 | 132 ft | 17 kts | 270° |
| 2026-04-23 21:01 | 61.17126 | -149.96989 | 132 ft | 17 kts | 269° |
| 2026-04-23 21:01 | 61.17124 | -149.97268 | 132 ft | 22 kts | 265° |
| 2026-04-23 21:01 | 61.17117 | -149.97587 | 132 ft | 22 kts | 268° |
| 2026-04-23 21:01 | 61.17117 | -149.97898 | 132 ft | 21 kts | 270° |
| 2026-04-23 21:02 | 61.17116 | -149.98199 | 132 ft | 21 kts | 269° |
| 2026-04-23 21:02 | 61.17115 | -149.98491 | 133 ft | 20 kts | 270° |
| 2026-04-23 21:02 | 61.17116 | -149.98774 | 133 ft | 19 kts | 270° |
| 2026-04-23 21:02 | 61.17133 | -149.99043 | 133 ft | 19 kts | 304° |
| 2026-04-23 21:03 | 61.17251 | -149.99140 | 135 ft | 18 kts | 345° |
| 2026-04-23 21:03 | 61.17288 | -149.99361 | 135 ft | 18 kts | 269° |
| 2026-04-23 21:03 | 61.17309 | -149.99602 | 135 ft | 18 kts | 324° |
| 2026-04-23 21:03 | 61.17428 | -149.99676 | 135 ft | 20 kts | 346° |
| 2026-04-23 21:04 | 61.17598 | -149.99773 | 135 ft | 28 kts | 344° |
| 2026-04-23 21:04 | 61.17784 | -149.99878 | 134 ft | 27 kts | 345° |
| 2026-04-23 21:04 | 61.17959 | -149.99979 | 135 ft | 25 kts | 343° |
| 2026-04-23 21:04 | 61.18123 | -150.00067 | 132 ft | 24 kts | 344° |
| 2026-04-23 21:05 | 61.18278 | -150.00155 | 133 ft | 24 kts | 344° |
| 2026-04-23 21:05 | 61.18453 | -150.00249 | 133 ft | 28 kts | 343° |
| 2026-04-23 21:05 | 61.18640 | -150.00356 | 133 ft | 27 kts | 346° |
| 2026-04-23 21:05 | 61.18817 | -150.00456 | 133 ft | 25 kts | 346° |
| 2026-04-23 21:06 | 61.18983 | -150.00550 | 132 ft | 24 kts | 346° |
| 2026-04-23 21:06 | 61.19136 | -150.00635 | 132 ft | 23 kts | 345° |
| 2026-04-23 21:06 | 61.19288 | -150.00720 | 132 ft | 22 kts | 346° |
| 2026-04-23 21:06 | 61.19434 | -150.00801 | 133 ft | 23 kts | 345° |
| 2026-04-23 21:07 | 61.19601 | -150.00895 | 133 ft | 26 kts | 344° |
| 2026-04-23 21:07 | 61.19770 | -150.00989 | 133 ft | 24 kts | 345° |
| 2026-04-23 21:07 | 61.19913 | -150.01087 | 132 ft | 14 kts | 311° |
| 2026-04-23 21:07 | 61.19911 | -150.01277 | 127 ft | 14 kts | 256° |
| 2026-04-23 21:08 | 61.19866 | -150.01395 | 125 ft | 7 kts | 174° |
| 2026-04-23 21:08 | 61.19843 | -150.01383 | 126 ft | 0 kts | 165° |
| 2026-04-23 21:08 | 61.19828 | -150.01374 | 124 ft | 11 kts | 165° |
| 2026-04-23 21:08 | 61.19535 | -150.01211 | 123 ft | 76 kts | 165° |
| 2026-04-23 21:09 | 61.18828 | -150.00813 | 125 ft | 131 kts | 165° |
| 2026-04-23 21:09 | 61.17830 | -150.00261 | 366 ft | 154 kts | 165° |
| 2026-04-23 21:09 | 61.16798 | -149.99747 | 1048 ft | 153 kts | 164° |
| 2026-04-23 21:09 | 61.15691 | -149.99585 | 1500 ft | 167 kts | 188° |
| 2026-04-23 21:10 | 61.14560 | -150.00192 | 2032 ft | 177 kts | 191° |
| 2026-04-23 21:10 | 61.13291 | -150.00818 | 2377 ft | 193 kts | 189° |
| 2026-04-23 21:10 | 61.12062 | -150.02117 | 2708 ft | 215 kts | 221° |
| 2026-04-23 21:10 | 61.11413 | -150.05069 | 2888 ft | 244 kts | 263° |
| 2026-04-23 21:11 | 61.11788 | -150.08643 | 3084 ft | 270 kts | 296° |
| 2026-04-23 21:11 | 61.12848 | -150.11476 | 3487 ft | 281 kts | 320° |
| 2026-04-23 21:11 | 61.14564 | -150.13302 | 4190 ft | 281 kts | 347° |
| 2026-04-23 21:11 | 61.16504 | -150.14110 | 4828 ft | 286 kts | 351° |
| 2026-04-23 21:12 | 61.18488 | -150.14749 | 5492 ft | 290 kts | 352° |
| 2026-04-23 21:12 | 61.20499 | -150.15377 | 6202 ft | 293 kts | 351° |
| 2026-04-23 21:12 | 61.22518 | -150.16029 | 6913 ft | 295 kts | 349° |
| 2026-04-23 21:12 | 61.24553 | -150.16715 | 7595 ft | 298 kts | 349° |
| 2026-04-23 21:13 | 61.26611 | -150.17434 | 8302 ft | 301 kts | 349° |
| 2026-04-23 21:13 | 61.28680 | -150.18177 | 9034 ft | 304 kts | 349° |
| 2026-04-23 21:13 | 61.30774 | -150.18944 | 9787 ft | 307 kts | 349° |
| 2026-04-23 21:13 | 61.32892 | -150.19732 | 10396 ft | 315 kts | 348° |
| 2026-04-23 21:14 | 61.35134 | -150.20577 | 10567 ft | 338 kts | 348° |
| 2026-04-23 21:14 | 61.37490 | -150.21473 | 10844 ft | 355 kts | 348° |
| 2026-04-23 21:14 | 61.39952 | -150.22412 | 11393 ft | 363 kts | 348° |
| 2026-04-23 21:14 | 61.42462 | -150.23368 | 11996 ft | 370 kts | 347° |
| 2026-04-23 21:15 | 61.45009 | -150.24347 | 12689 ft | 374 kts | 347° |
| 2026-04-23 21:15 | 61.47578 | -150.25337 | 13447 ft | 377 kts | 347° |
| 2026-04-23 21:15 | 61.50173 | -150.26339 | 14169 ft | 381 kts | 347° |
| 2026-04-23 21:15 | 61.52793 | -150.27354 | 14869 ft | 384 kts | 347° |
| 2026-04-23 21:16 | 61.55425 | -150.28374 | 15638 ft | 385 kts | 346° |
| 2026-04-23 21:16 | 61.58064 | -150.29398 | 16397 ft | 387 kts | 346° |
| 2026-04-23 21:16 | 61.60722 | -150.30432 | 17121 ft | 389 kts | 346° |
| 2026-04-23 21:16 | 61.63393 | -150.31475 | 17833 ft | 392 kts | 346° |
| 2026-04-23 21:17 | 61.66088 | -150.32528 | 18534 ft | 395 kts | 346° |
| 2026-04-23 21:17 | 61.68801 | -150.33591 | 19114 ft | 400 kts | 345° |
| 2026-04-23 21:17 | 61.71561 | -150.34675 | 19598 ft | 406 kts | 345° |
| 2026-04-23 21:17 | 61.74360 | -150.35776 | 20154 ft | 410 kts | 345° |
| 2026-04-23 21:18 | 61.77179 | -150.36886 | 20722 ft | 414 kts | 345° |
| 2026-04-23 21:18 | 61.79988 | -150.37993 | 21324 ft | 416 kts | 344° |
| 2026-04-23 21:18 | 61.82840 | -150.39119 | 21883 ft | 420 kts | 344° |
| 2026-04-23 21:18 | 61.85730 | -150.40263 | 22381 ft | 424 kts | 344° |
| 2026-04-23 21:19 | 61.88656 | -150.41425 | 22881 ft | 429 kts | 344° |
| 2026-04-23 21:19 | 61.91604 | -150.42598 | 23382 ft | 433 kts | 343° |
| 2026-04-23 21:19 | 61.94579 | -150.43782 | 23871 ft | 437 kts | 343° |
| 2026-04-23 21:19 | 61.97584 | -150.44980 | 24293 ft | 440 kts | 343° |
| 2026-04-23 21:20 | 62.00610 | -150.46189 | 24721 ft | 443 kts | 343° |
| 2026-04-23 21:20 | 62.03659 | -150.47410 | 25136 ft | 447 kts | 343° |
| 2026-04-23 21:20 | 62.06726 | -150.48640 | 25541 ft | 450 kts | 343° |
| 2026-04-23 21:20 | 62.09810 | -150.49880 | 25949 ft | 453 kts | 342° |
| 2026-04-23 21:21 | 62.12922 | -150.51134 | 26345 ft | 456 kts | 342° |
| 2026-04-23 21:21 | 62.16052 | -150.52398 | 26780 ft | 460 kts | 342° |
| 2026-04-23 21:21 | 62.19169 | -150.53661 | 27113 ft | 464 kts | 342° |
| 2026-04-23 21:21 | 62.22357 | -150.54955 | 27491 ft | 467 kts | 342° |
| 2026-04-23 21:22 | 62.25557 | -150.56254 | 27876 ft | 470 kts | 342° |
| 2026-04-23 21:22 | 62.28784 | -150.57567 | 28247 ft | 473 kts | 342° |
| 2026-04-23 21:22 | 62.32029 | -150.58891 | 28598 ft | 476 kts | 342° |
| 2026-04-23 21:22 | 62.35296 | -150.60227 | 28941 ft | 479 kts | 341° |
| 2026-04-23 21:23 | 62.38580 | -150.61574 | 29278 ft | 482 kts | 341° |
| 2026-04-23 21:23 | 62.41889 | -150.62933 | 29613 ft | 485 kts | 341° |
| 2026-04-23 21:23 | 62.45209 | -150.64300 | 29933 ft | 487 kts | 341° |
| 2026-04-23 21:23 | 62.48553 | -150.65680 | 30251 ft | 490 kts | 341° |
| 2026-04-23 21:24 | 62.51913 | -150.67070 | 30515 ft | 492 kts | 341° |
| 2026-04-23 21:24 | 62.55240 | -150.68448 | 30837 ft | 494 kts | 341° |
| 2026-04-23 21:24 | 62.58614 | -150.69847 | 31208 ft | 493 kts | 341° |
| 2026-04-23 21:24 | 62.61976 | -150.71239 | 31650 ft | 490 kts | 341° |
| 2026-04-23 21:25 | 62.65320 | -150.72630 | 32103 ft | 489 kts | 341° |
| 2026-04-23 21:25 | 62.68659 | -150.74021 | 32462 ft | 488 kts | 341° |
| 2026-04-23 21:25 | 62.72000 | -150.75419 | 32821 ft | 487 kts | 341° |
| 2026-04-23 21:25 | 62.75333 | -150.76823 | 33158 ft | 487 kts | 341° |
| 2026-04-23 21:26 | 62.78655 | -150.78226 | 33506 ft | 486 kts | 341° |
| 2026-04-23 21:26 | 62.81976 | -150.79628 | 33899 ft | 484 kts | 341° |
| 2026-04-23 21:26 | 62.85281 | -150.81025 | 34251 ft | 483 kts | 341° |
| 2026-04-23 21:26 | 62.88583 | -150.82427 | 34530 ft | 483 kts | 341° |
| 2026-04-23 21:27 | 62.91880 | -150.83829 | 34783 ft | 482 kts | 342° |
| 2026-04-23 21:27 | 62.95162 | -150.85222 | 35177 ft | 478 kts | 343° |
| 2026-04-23 21:27 | 62.98377 | -150.86571 | 35575 ft | 474 kts | 343° |
| 2026-04-23 21:27 | 63.01619 | -150.87959 | 35757 ft | 474 kts | 343° |
| 2026-04-23 21:28 | 63.04864 | -150.89366 | 35899 ft | 477 kts | 343° |
| 2026-04-23 21:28 | 63.08124 | -150.90782 | 36147 ft | 476 kts | 343° |
| 2026-04-23 21:28 | 63.11369 | -150.92200 | 36454 ft | 475 kts | 344° |
| 2026-04-23 21:28 | 63.14623 | -150.93610 | 36588 ft | 477 kts | 344° |
| 2026-04-23 21:29 | 63.17842 | -150.94993 | 36776 ft | 477 kts | 344° |
| 2026-04-23 21:29 | 63.21095 | -150.96383 | 36995 ft | 476 kts | 344° |
| 2026-04-23 21:29 | 63.24356 | -150.97799 | 37208 ft | 475 kts | 344° |
| 2026-04-23 21:29 | 63.27598 | -150.99217 | 37433 ft | 475 kts | 345° |
| 2026-04-23 21:30 | 63.30845 | -151.00641 | 37628 ft | 475 kts | 345° |
| 2026-04-23 21:30 | 63.34091 | -151.02068 | 37793 ft | 476 kts | 345° |
| 2026-04-23 21:30 | 63.37341 | -151.03498 | 37968 ft | 476 kts | 345° |
| 2026-04-23 21:30 | 63.40600 | -151.04933 | 38079 ft | 477 kts | 345° |
| 2026-04-23 21:31 | 63.47170 | -151.07838 | 38088 ft | 484 kts | 345° |
| 2026-04-23 21:31 | 63.53772 | -151.10769 | 38087 ft | 490 kts | 345° |
| 2026-04-23 21:32 | 63.60499 | -151.13771 | 38130 ft | 495 kts | 345° |
| 2026-04-23 21:32 | 63.67295 | -151.16812 | 38115 ft | 497 kts | 345° |
| 2026-04-23 21:33 | 63.74052 | -151.19849 | 38106 ft | 498 kts | 345° |
| 2026-04-23 21:33 | 63.80858 | -151.22925 | 38123 ft | 498 kts | 345° |
| 2026-04-23 21:34 | 63.87658 | -151.26015 | 38122 ft | 496 kts | 345° |
| 2026-04-23 21:34 | 63.94357 | -151.29072 | 38133 ft | 492 kts | 345° |
| 2026-04-23 21:35 | 64.01049 | -151.32144 | 38142 ft | 490 kts | 345° |
| 2026-04-23 21:35 | 64.07720 | -151.35226 | 38181 ft | 489 kts | 345° |
| 2026-04-23 21:36 | 64.17751 | -151.39883 | 38145 ft | 490 kts | 345° |
| 2026-04-23 21:37 | 64.23320 | -151.42481 | 38162 ft | 491 kts | 345° |
| 2026-04-23 21:37 | 64.30021 | -151.45623 | 38168 ft | 492 kts | 345° |
| 2026-04-23 21:38 | 64.36738 | -151.48788 | 38153 ft | 493 kts | 345° |
| 2026-04-23 21:38 | 64.43486 | -151.51984 | 38163 ft | 495 kts | 345° |
| 2026-04-23 21:39 | 64.50238 | -151.55198 | 38173 ft | 496 kts | 345° |
| 2026-04-23 21:39 | 64.56998 | -151.58435 | 38182 ft | 496 kts | 345° |
| 2026-04-23 21:40 | 64.63727 | -151.61669 | 38171 ft | 496 kts | 345° |
| 2026-04-23 21:40 | 64.70493 | -151.64936 | 38171 ft | 496 kts | 345° |
| 2026-04-23 21:41 | 64.77242 | -151.68213 | 38172 ft | 495 kts | 345° |
| 2026-04-23 21:41 | 64.83986 | -151.71505 | 38167 ft | 494 kts | 345° |
| 2026-04-23 21:42 | 64.90716 | -151.74807 | 38180 ft | 493 kts | 345° |
| 2026-04-23 21:42 | 64.97418 | -151.78113 | 38172 ft | 492 kts | 345° |
| 2026-04-23 21:43 | 65.04065 | -151.81409 | 38202 ft | 490 kts | 345° |
| 2026-04-23 21:43 | 65.10747 | -151.84739 | 38181 ft | 490 kts | 345° |
| 2026-04-23 21:44 | 65.17430 | -151.88086 | 38182 ft | 490 kts | 345° |
| 2026-04-23 21:44 | 65.24094 | -151.91441 | 38188 ft | 489 kts | 345° |
| 2026-04-23 21:45 | 65.30757 | -151.94814 | 38188 ft | 490 kts | 345° |
| 2026-04-23 21:45 | 65.37400 | -151.98193 | 38182 ft | 490 kts | 345° |
| 2026-04-23 21:46 | 65.44078 | -152.01607 | 38167 ft | 490 kts | 345° |
| 2026-04-23 21:46 | 65.50761 | -152.05042 | 38168 ft | 491 kts | 345° |
| 2026-04-23 21:47 | 65.57449 | -152.08499 | 38167 ft | 491 kts | 345° |
| 2026-04-23 21:47 | 65.64135 | -152.11971 | 38164 ft | 492 kts | 345° |
| 2026-04-23 21:48 | 65.70830 | -152.15466 | 38180 ft | 491 kts | 345° |
| 2026-04-23 21:48 | 65.77515 | -152.18975 | 38171 ft | 491 kts | 345° |
| 2026-04-23 21:49 | 65.84203 | -152.22505 | 38171 ft | 491 kts | 345° |
| 2026-04-23 21:49 | 65.90833 | -152.26022 | 38168 ft | 490 kts | 345° |
| 2026-04-23 21:50 | 65.97511 | -152.29584 | 38182 ft | 490 kts | 345° |
| 2026-04-23 21:50 | 66.04170 | -152.33155 | 38187 ft | 490 kts | 345° |
| 2026-04-23 21:51 | 66.10788 | -152.36723 | 38186 ft | 489 kts | 345° |
| 2026-04-23 21:51 | 66.17447 | -152.40332 | 38200 ft | 489 kts | 345° |
| 2026-04-23 21:52 | 66.24105 | -152.43961 | 38204 ft | 489 kts | 344° |
| 2026-04-23 21:52 | 66.30757 | -152.47604 | 38204 ft | 489 kts | 344° |
| 2026-04-23 21:53 | 66.37370 | -152.51360 | 38205 ft | 489 kts | 343° |
| 2026-04-23 21:53 | 66.43995 | -152.55327 | 38210 ft | 489 kts | 343° |
| 2026-04-23 21:54 | 66.50610 | -152.59319 | 38231 ft | 489 kts | 343° |
| 2026-04-23 21:54 | 66.57234 | -152.63314 | 38219 ft | 489 kts | 343° |
| 2026-04-23 21:55 | 66.63853 | -152.67310 | 38218 ft | 489 kts | 343° |
| 2026-04-23 21:55 | 66.70426 | -152.71297 | 38221 ft | 488 kts | 343° |
| 2026-04-23 21:56 | 66.77038 | -152.75331 | 38219 ft | 488 kts | 343° |
| 2026-04-23 21:56 | 66.83646 | -152.79386 | 38227 ft | 488 kts | 343° |
| 2026-04-23 21:57 | 66.90252 | -152.83462 | 38234 ft | 488 kts | 343° |
| 2026-04-23 21:57 | 66.96811 | -152.87532 | 38230 ft | 487 kts | 343° |
| 2026-04-23 21:58 | 67.03401 | -152.91644 | 38233 ft | 488 kts | 343° |
| 2026-04-23 21:58 | 67.10002 | -152.95787 | 38225 ft | 488 kts | 343° |
| 2026-04-23 21:59 | 67.16589 | -152.99979 | 38231 ft | 487 kts | 343° |
| 2026-04-23 21:59 | 67.23138 | -153.04129 | 38224 ft | 488 kts | 343° |
| 2026-04-23 22:00 | 67.33024 | -153.10413 | 38232 ft | 487 kts | 343° |
| 2026-04-23 22:00 | 67.39602 | -153.14645 | 38235 ft | 486 kts | 343° |
| 2026-04-23 22:01 | 67.46176 | -153.18903 | 38227 ft | 486 kts | 343° |
| 2026-04-23 22:01 | 67.52743 | -153.23179 | 38246 ft | 487 kts | 343° |
| 2026-04-23 22:02 | 67.59315 | -153.27482 | 38239 ft | 487 kts | 343° |
| 2026-04-23 22:02 | 67.65888 | -153.31810 | 38237 ft | 487 kts | 343° |
| 2026-04-23 22:03 | 67.72421 | -153.36136 | 38233 ft | 487 kts | 343° |
| 2026-04-23 22:03 | 67.79002 | -153.40520 | 38232 ft | 487 kts | 343° |
| 2026-04-23 22:04 | 67.85570 | -153.44920 | 38231 ft | 487 kts | 343° |
| 2026-04-23 22:04 | 67.92135 | -153.49343 | 38217 ft | 486 kts | 343° |
| 2026-04-23 22:05 | 67.98691 | -153.53787 | 38212 ft | 486 kts | 343° |
| 2026-04-23 22:05 | 68.05256 | -153.58262 | 38213 ft | 487 kts | 343° |
| 2026-04-23 22:06 | 68.11821 | -153.62765 | 38177 ft | 487 kts | 343° |
| 2026-04-23 22:06 | 68.18352 | -153.67270 | 38175 ft | 487 kts | 343° |
| 2026-04-23 22:07 | 68.24917 | -153.71826 | 38168 ft | 487 kts | 343° |
| 2026-04-23 22:07 | 68.31475 | -153.76403 | 38149 ft | 487 kts | 343° |
| 2026-04-23 22:08 | 68.38039 | -153.81012 | 38153 ft | 486 kts | 343° |
| 2026-04-23 22:08 | 68.44599 | -153.85646 | 38142 ft | 486 kts | 343° |
| 2026-04-23 22:09 | 68.51143 | -153.90297 | 38168 ft | 486 kts | 343° |
| 2026-04-23 22:09 | 68.57692 | -153.94978 | 38157 ft | 486 kts | 343° |
| 2026-04-23 22:10 | 68.64237 | -153.99686 | 38154 ft | 486 kts | 343° |
| 2026-04-23 22:10 | 68.70771 | -154.04414 | 38170 ft | 485 kts | 343° |
| 2026-04-23 22:11 | 68.77297 | -154.09166 | 38169 ft | 485 kts | 343° |
| 2026-04-23 22:11 | 68.83783 | -154.13916 | 38196 ft | 485 kts | 343° |
| 2026-04-23 22:12 | 68.90304 | -154.18721 | 38211 ft | 485 kts | 343° |
| 2026-04-23 22:12 | 68.96830 | -154.23560 | 38215 ft | 485 kts | 342° |
| 2026-04-23 22:13 | 69.03360 | -154.28431 | 38220 ft | 485 kts | 343° |
| 2026-04-23 22:13 | 69.06594 | -154.30856 | 37819 ft | 492 kts | 343° |
| 2026-04-23 22:13 | 69.09876 | -154.33323 | 37588 ft | 478 kts | 343° |
| 2026-04-23 22:14 | 69.13026 | -154.35688 | 37491 ft | 459 kts | 342° |
| 2026-04-23 22:14 | 69.16051 | -154.37967 | 37381 ft | 442 kts | 342° |
| 2026-04-23 22:14 | 69.18960 | -154.40166 | 37272 ft | 425 kts | 342° |
| 2026-04-23 22:14 | 69.21778 | -154.42306 | 36993 ft | 414 kts | 342° |
| 2026-04-23 22:15 | 69.24544 | -154.44418 | 36520 ft | 409 kts | 342° |
| 2026-04-23 22:15 | 69.27281 | -154.46516 | 35993 ft | 406 kts | 342° |
| 2026-04-23 22:15 | 69.29998 | -154.48603 | 35523 ft | 402 kts | 342° |
| 2026-04-23 22:15 | 69.32649 | -154.50644 | 35109 ft | 397 kts | 342° |
| 2026-04-23 22:16 | 69.35295 | -154.52683 | 34703 ft | 391 kts | 342° |
| 2026-04-23 22:16 | 69.37915 | -154.54707 | 34303 ft | 386 kts | 342° |
| 2026-04-23 22:16 | 69.40491 | -154.56702 | 33841 ft | 381 kts | 342° |
| 2026-04-23 22:16 | 69.43040 | -154.58681 | 33376 ft | 377 kts | 342° |
| 2026-04-23 22:17 | 69.45548 | -154.60633 | 32928 ft | 372 kts | 342° |
| 2026-04-23 22:17 | 69.48028 | -154.62568 | 32497 ft | 367 kts | 342° |
| 2026-04-23 22:17 | 69.50486 | -154.64490 | 32085 ft | 362 kts | 342° |
| 2026-04-23 22:17 | 69.52903 | -154.66397 | 31700 ft | 357 kts | 343° |
| 2026-04-23 22:18 | 69.55297 | -154.68280 | 31405 ft | 354 kts | 343° |
| 2026-04-23 22:18 | 69.57676 | -154.70150 | 31152 ft | 360 kts | 343° |
| 2026-04-23 22:18 | 69.60154 | -154.72107 | 30877 ft | 379 kts | 343° |
| 2026-04-23 22:18 | 69.62736 | -154.74153 | 30512 ft | 399 kts | 343° |
| 2026-04-23 22:19 | 69.65417 | -154.76280 | 30116 ft | 398 kts | 343° |
| 2026-04-23 22:19 | 69.68083 | -154.78396 | 29690 ft | 395 kts | 343° |
| 2026-04-23 22:19 | 69.70723 | -154.80498 | 29326 ft | 391 kts | 343° |
| 2026-04-23 22:19 | 69.73334 | -154.82582 | 28963 ft | 387 kts | 343° |
| 2026-04-23 22:20 | 69.75916 | -154.84650 | 28597 ft | 383 kts | 343° |
| 2026-04-23 22:20 | 69.78473 | -154.86703 | 28241 ft | 380 kts | 343° |
| 2026-04-23 22:20 | 69.81011 | -154.88748 | 27886 ft | 376 kts | 344° |
| 2026-04-23 22:20 | 69.83523 | -154.90777 | 27531 ft | 373 kts | 344° |
| 2026-04-23 22:21 | 69.86017 | -154.92796 | 27177 ft | 371 kts | 344° |
| 2026-04-23 22:21 | 69.88462 | -154.94781 | 26838 ft | 368 kts | 344° |
| 2026-04-23 22:21 | 69.90922 | -154.96782 | 26494 ft | 365 kts | 344° |
| 2026-04-23 22:21 | 69.93361 | -154.98770 | 26157 ft | 363 kts | 344° |
| 2026-04-23 22:22 | 69.95783 | -155.00750 | 25821 ft | 361 kts | 344° |
| 2026-04-23 22:22 | 69.98191 | -155.02724 | 25488 ft | 358 kts | 344° |
| 2026-04-23 22:22 | 70.00590 | -155.04692 | 25156 ft | 356 kts | 343° |
| 2026-04-23 22:22 | 70.02971 | -155.06659 | 24831 ft | 355 kts | 344° |
| 2026-04-23 22:23 | 70.05340 | -155.08618 | 24491 ft | 353 kts | 344° |
| 2026-04-23 22:23 | 70.07695 | -155.10732 | 24110 ft | 353 kts | 339° |
| 2026-04-23 22:23 | 70.09990 | -155.13495 | 23610 ft | 356 kts | 335° |
| 2026-04-23 22:23 | 70.12234 | -155.16519 | 23218 ft | 354 kts | 334° |
| 2026-04-23 22:24 | 70.13713 | -155.18554 | 22976 ft | 353 kts | 334° |
| 2026-04-23 22:24 | 70.15926 | -155.21599 | 22647 ft | 349 kts | 334° |
| 2026-04-23 22:24 | 70.18126 | -155.24602 | 22319 ft | 346 kts | 334° |
| 2026-04-23 22:24 | 70.20311 | -155.27557 | 21985 ft | 344 kts | 334° |
| 2026-04-23 22:25 | 70.22481 | -155.30477 | 21657 ft | 341 kts | 334° |
| 2026-04-23 22:25 | 70.24635 | -155.33367 | 21325 ft | 338 kts | 334° |
| 2026-04-23 22:25 | 70.26743 | -155.36194 | 21014 ft | 336 kts | 334° |
| 2026-04-23 22:25 | 70.28871 | -155.39053 | 20701 ft | 333 kts | 333° |
| 2026-04-23 22:26 | 70.30977 | -155.41884 | 20384 ft | 331 kts | 333° |
| 2026-04-23 22:26 | 70.33071 | -155.44706 | 20091 ft | 329 kts | 333° |
| 2026-04-23 22:26 | 70.35151 | -155.47516 | 19771 ft | 327 kts | 333° |
| 2026-04-23 22:26 | 70.37215 | -155.50308 | 19468 ft | 325 kts | 333° |
| 2026-04-23 22:27 | 70.39268 | -155.53094 | 19159 ft | 323 kts | 333° |
| 2026-04-23 22:27 | 70.41313 | -155.55872 | 18854 ft | 322 kts | 333° |
| 2026-04-23 22:27 | 70.43340 | -155.58633 | 18546 ft | 320 kts | 333° |
| 2026-04-23 22:27 | 70.45336 | -155.61357 | 18223 ft | 318 kts | 332° |
| 2026-04-23 22:28 | 70.47344 | -155.64102 | 17893 ft | 316 kts | 332° |
| 2026-04-23 22:28 | 70.49322 | -155.66821 | 17751 ft | 308 kts | 332° |
| 2026-04-23 22:28 | 70.51264 | -155.69501 | 17486 ft | 305 kts | 332° |
| 2026-04-23 22:28 | 70.53187 | -155.72164 | 17192 ft | 303 kts | 332° |
| 2026-04-23 22:29 | 70.55096 | -155.74814 | 16895 ft | 301 kts | 332° |
| 2026-04-23 22:29 | 70.56990 | -155.77451 | 16602 ft | 299 kts | 332° |
| 2026-04-23 22:29 | 70.58874 | -155.80077 | 16309 ft | 297 kts | 332° |
| 2026-04-23 22:29 | 70.60749 | -155.82696 | 16021 ft | 296 kts | 331° |
| 2026-04-23 22:30 | 70.62607 | -155.85298 | 15734 ft | 294 kts | 332° |
| 2026-04-23 22:30 | 70.64460 | -155.87897 | 15447 ft | 293 kts | 332° |
| 2026-04-23 22:30 | 70.66299 | -155.90480 | 15164 ft | 291 kts | 331° |
| 2026-04-23 22:30 | 70.68108 | -155.93028 | 14877 ft | 290 kts | 332° |
| 2026-04-23 22:31 | 70.69933 | -155.95622 | 14608 ft | 288 kts | 328° |
| 2026-04-23 22:31 | 70.71617 | -155.98827 | 14327 ft | 285 kts | 322° |
| 2026-04-23 22:31 | 70.73257 | -156.02197 | 14043 ft | 284 kts | 323° |
| 2026-04-23 22:31 | 70.74888 | -156.05569 | 13731 ft | 283 kts | 322° |
| 2026-04-23 22:32 | 70.76515 | -156.08938 | 13434 ft | 282 kts | 322° |
| 2026-04-23 22:32 | 70.78131 | -156.12298 | 13089 ft | 282 kts | 322° |
| 2026-04-23 22:32 | 70.79716 | -156.15903 | 12643 ft | 285 kts | 318° |
| 2026-04-23 22:32 | 70.81241 | -156.19661 | 12338 ft | 279 kts | 317° |
| 2026-04-23 22:33 | 70.82729 | -156.23387 | 12050 ft | 274 kts | 317° |
| 2026-04-23 22:33 | 70.84192 | -156.27038 | 11796 ft | 272 kts | 318° |
| 2026-04-23 22:33 | 70.85646 | -156.30714 | 11523 ft | 273 kts | 317° |
| 2026-04-23 22:33 | 70.87136 | -156.34500 | 11048 ft | 283 kts | 317° |
| 2026-04-23 22:34 | 70.88624 | -156.38323 | 10711 ft | 284 kts | 317° |
| 2026-04-23 22:34 | 70.90142 | -156.42217 | 10358 ft | 286 kts | 318° |
| 2026-04-23 22:34 | 70.91661 | -156.46143 | 10000 ft | 287 kts | 317° |
| 2026-04-23 22:34 | 70.93186 | -156.50102 | 9613 ft | 288 kts | 317° |
| 2026-04-23 22:35 | 70.94706 | -156.54097 | 9227 ft | 287 kts | 317° |
| 2026-04-23 22:35 | 70.96215 | -156.58073 | 8850 ft | 284 kts | 317° |
| 2026-04-23 22:35 | 70.97701 | -156.62035 | 8469 ft | 281 kts | 317° |
| 2026-04-23 22:35 | 70.99164 | -156.65960 | 8093 ft | 278 kts | 316° |
| 2026-04-23 22:36 | 71.00606 | -156.69870 | 7720 ft | 275 kts | 317° |
| 2026-04-23 22:36 | 71.02036 | -156.73770 | 7366 ft | 274 kts | 317° |
| 2026-04-23 22:36 | 71.03454 | -156.77670 | 7016 ft | 273 kts | 317° |
| 2026-04-23 22:36 | 71.04869 | -156.81586 | 6644 ft | 273 kts | 317° |
| 2026-04-23 22:37 | 71.06275 | -156.85519 | 6270 ft | 272 kts | 317° |
| 2026-04-23 22:37 | 71.07642 | -156.89409 | 5889 ft | 272 kts | 317° |
| 2026-04-23 22:37 | 71.09027 | -156.93384 | 5518 ft | 271 kts | 317° |
| 2026-04-23 22:37 | 71.10394 | -156.97374 | 5142 ft | 270 kts | 317° |
| 2026-04-23 22:38 | 71.11754 | -157.01402 | 4775 ft | 270 kts | 317° |
| 2026-04-23 22:38 | 71.13102 | -157.05472 | 4399 ft | 271 kts | 317° |
| 2026-04-23 22:38 | 71.14410 | -157.09544 | 4113 ft | 267 kts | 317° |
| 2026-04-23 22:38 | 71.15696 | -157.13586 | 3840 ft | 259 kts | 317° |
| 2026-04-23 22:39 | 71.16939 | -157.17528 | 3589 ft | 252 kts | 317° |
| 2026-04-23 22:39 | 71.18144 | -157.21383 | 3329 ft | 245 kts | 316° |
| 2026-04-23 22:39 | 71.19311 | -157.25136 | 3069 ft | 239 kts | 317° |
| 2026-04-23 22:39 | 71.20444 | -157.28822 | 2808 ft | 233 kts | 317° |
| 2026-04-23 22:40 | 71.21686 | -157.31826 | 2523 ft | 221 kts | 342° |
| 2026-04-23 22:40 | 71.23101 | -157.33470 | 2300 ft | 216 kts | 347° |
| 2026-04-23 22:40 | 71.25926 | -157.34947 | 1986 ft | 195 kts | 27° |
| 2026-04-23 22:41 | 71.26955 | -157.32541 | 2013 ft | 184 kts | 57° |
| 2026-04-23 22:41 | 71.27706 | -157.29278 | 2003 ft | 187 kts | 60° |
| 2026-04-23 22:41 | 71.28315 | -157.25756 | 1977 ft | 183 kts | 81° |
| 2026-04-23 22:41 | 71.28390 | -157.21881 | 2018 ft | 178 kts | 87° |
| 2026-04-23 22:42 | 71.28529 | -157.18133 | 1990 ft | 169 kts | 88° |
| 2026-04-23 22:42 | 71.28537 | -157.14568 | 1987 ft | 163 kts | 91° |
| 2026-04-23 22:42 | 71.28522 | -157.11037 | 2012 ft | 159 kts | 91° |
| 2026-04-23 22:42 | 71.28514 | -157.07781 | 1992 ft | 145 kts | 91° |
| 2026-04-23 22:43 | 71.28509 | -157.04773 | 1876 ft | 135 kts | 91° |
| 2026-04-23 22:43 | 71.28504 | -157.01885 | 1682 ft | 130 kts | 91° |
| 2026-04-23 22:43 | 71.28501 | -156.99224 | 1537 ft | 116 kts | 91° |
| 2026-04-23 22:43 | 71.28497 | -156.96722 | 1343 ft | 116 kts | 90° |
| 2026-04-23 22:44 | 71.28498 | -156.94222 | 1185 ft | 113 kts | 89° |
| 2026-04-23 22:44 | 71.28515 | -156.91776 | 965 ft | 112 kts | 87° |
| 2026-04-23 22:44 | 71.28534 | -156.89350 | 779 ft | 111 kts | 86° |
| 2026-04-23 22:44 | 71.28538 | -156.86907 | 618 ft | 114 kts | 89° |
| 2026-04-23 22:45 | 71.28527 | -156.84453 | 436 ft | 117 kts | 86° |
| 2026-04-23 22:45 | 71.28538 | -156.81930 | 251 ft | 117 kts | 84° |
| 2026-04-23 22:45 | 71.28544 | -156.79400 | 94 ft | 118 kts | 86° |
| 2026-04-23 22:45 | 71.28548 | -156.77002 | 58 ft | 101 kts | 87° |
| 2026-04-23 22:46 | 71.28548 | -156.75270 | 48 ft | 58 kts | 90° |
| 2026-04-23 22:46 | 71.28549 | -156.74475 | 43 ft | 23 kts | 89° |
| 2026-04-23 22:46 | 71.28548 | -156.73991 | 45 ft | 18 kts | 99° |
| 2026-04-23 22:46 | 71.28543 | -156.73815 | 45 ft | 3 kts | 324° |
| 2026-04-23 22:47 | 71.28546 | -156.73936 | 44 ft | 11 kts | 268° |
| 2026-04-23 22:47 | 71.28550 | -156.74297 | 43 ft | 24 kts | 269° |
| 2026-04-23 22:47 | 71.28545 | -156.74929 | 39 ft | 32 kts | 271° |
| 2026-04-23 22:47 | 71.28554 | -156.75568 | 52 ft | 16 kts | 288° |
| 2026-04-23 22:48 | 71.28557 | -156.75588 | 52 ft | 0 kts | 300° |
| 2026-04-23 22:48 | 71.28552 | -156.75895 | 50 ft | 30 kts | 267° |
| 2026-04-23 22:48 | 71.28550 | -156.76572 | 50 ft | 31 kts | 270° |
| 2026-04-23 22:48 | 71.28550 | -156.77217 | 56 ft | 29 kts | 269° |
| 2026-04-23 22:49 | 71.28640 | -156.77686 | 49 ft | 12 kts | 313° |
| 2026-04-23 22:49 | 71.28680 | -156.77729 | 53 ft | 6 kts | 46° |
| 2026-04-23 22:49 | 71.28707 | -156.77629 | 53 ft | 6 kts | 40° |
| 2026-04-23 22:49 | 71.28725 | -156.77611 | 51 ft | 0 kts | 355° |
| 2026-04-23 22:52 | 71.28496 | -156.95316 | 1253 ft | 117 kts | 90° |
| 2026-04-23 22:52 | 71.28544 | -156.79416 | 96 ft | 122 kts | 86° |
| 2026-04-23 22:53 | 71.28546 | -156.77593 | 61 ft | 106 kts | 85° |
| 2026-04-23 22:53 | 71.28548 | -156.74754 | 43 ft | 35 kts | 90° |
| 2026-04-23 22:53 | 71.28547 | -156.77253 | 54 ft | 102 kts | 86° |
| 2026-04-23 22:53 | 71.28548 | -156.75618 | 52 ft | 69 kts | 90° |